sensor_id;sensor_type;location;lat;lon;timestamp;pressure;altitude;pressure_sealevel;temperature;humidity
23170;BME280;11753;43.144;24.714;2023-05-19T00:00:02;99728.97;;;14.76;100.00
23170;BME280;11753;43.144;24.714;2023-05-19T00:01:04;99725.81;;;14.80;100.00
23170;BME280;11753;43.144;24.714;2023-05-19T00:02:06;99729.16;;;14.74;100.00
23170;BME280;11753;43.144;24.714;2023-05-19T00:03:08;99732.44;;;14.76;100.00
23170;BME280;11753;43.144;24.714;2023-05-19T00:04:09;99732.56;;;14.83;100.00
23170;BME280;11753;43.144;24.714;2023-05-19T00:05:11;99719.19;;;14.76;100.00
23170;BME280;11753;43.144;24.714;2023-05-19T00:06:14;99725.50;;;14.75;100.00
23170;BME280;11753;43.144;24.714;2023-05-19T00:07:18;99730.94;;;14.82;100.00
23170;BME280;11753;43.144;24.714;2023-05-19T00:08:21;99725.63;;;14.82;100.00
23170;BME280;11753;43.144;24.714;2023-05-19T00:09:23;99723.16;;;14.80;100.00
23170;BME280;11753;43.144;24.714;2023-05-19T00:10:24;99713.56;;;14.79;100.00
23170;BME280;11753;43.144;24.714;2023-05-19T00:11:30;99730.50;;;14.93;100.00
23170;BME280;11753;43.144;24.714;2023-05-19T00:12:31;99727.91;;;14.85;100.00
23170;BME280;11753;43.144;24.714;2023-05-19T00:13:32;99725.44;;;14.83;100.00
23170;BME280;11753;43.144;24.714;2023-05-19T00:14:33;99724.03;;;14.73;100.00
23170;BME280;11753;43.144;24.714;2023-05-19T00:15:34;99721.22;;;14.74;100.00
23170;BME280;11753;43.144;24.714;2023-05-19T00:16:36;99726.03;;;14.71;100.00
23170;BME280;11753;43.144;24.714;2023-05-19T00:17:37;99715.72;;;14.76;100.00
23170;BME280;11753;43.144;24.714;2023-05-19T00:18:41;99720.91;;;14.69;100.00
23170;BME280;11753;43.144;24.714;2023-05-19T00:19:44;99728.22;;;14.67;100.00
23170;BME280;11753;43.144;24.714;2023-05-19T00:20:45;99720.47;;;14.66;100.00
23170;BME280;11753;43.144;24.714;2023-05-19T00:21:46;99722.56;;;14.70;100.00
23170;BME280;11753;43.144;24.714;2023-05-19T00:22:47;99725.88;;;14.72;100.00
23170;BME280;11753;43.144;24.714;2023-05-19T00:23:48;99723.44;;;14.63;100.00
23170;BME280;11753;43.144;24.714;2023-05-19T00:24:49;99714.69;;;14.62;100.00
23170;BME280;11753;43.144;24.714;2023-05-19T00:25:50;99725.41;;;14.38;100.00
23170;BME280;11753;43.144;24.714;2023-05-19T00:26:53;99716.78;;;14.44;100.00
23170;BME280;11753;43.144;24.714;2023-05-19T00:27:54;99724.38;;;14.47;100.00
23170;BME280;11753;43.144;24.714;2023-05-19T00:28:55;99720.13;;;14.38;100.00
23170;BME280;11753;43.144;24.714;2023-05-19T00:29:56;99722.16;;;14.27;100.00
23170;BME280;11753;43.144;24.714;2023-05-19T00:30:57;99726.28;;;14.30;100.00
23170;BME280;11753;43.144;24.714;2023-05-19T00:31:58;99728.94;;;14.30;100.00
23170;BME280;11753;43.144;24.714;2023-05-19T00:32:59;99726.84;;;14.17;100.00
23170;BME280;11753;43.144;24.714;2023-05-19T00:34:00;99726.41;;;14.37;100.00
23170;BME280;11753;43.144;24.714;2023-05-19T00:35:01;99721.47;;;14.33;100.00
23170;BME280;11753;43.144;24.714;2023-05-19T00:36:02;99727.75;;;14.32;100.00
23170;BME280;11753;43.144;24.714;2023-05-19T00:37:03;99725.94;;;14.33;100.00
23170;BME280;11753;43.144;24.714;2023-05-19T00:38:04;99735.34;;;14.36;100.00
23170;BME280;11753;43.144;24.714;2023-05-19T00:39:05;99729.06;;;14.37;100.00
23170;BME280;11753;43.144;24.714;2023-05-19T00:40:06;99715.16;;;14.35;100.00
23170;BME280;11753;43.144;24.714;2023-05-19T00:41:07;99725.59;;;14.36;100.00
23170;BME280;11753;43.144;24.714;2023-05-19T00:42:08;99724.41;;;14.39;100.00
23170;BME280;11753;43.144;24.714;2023-05-19T00:43:09;99714.50;;;14.32;100.00
23170;BME280;11753;43.144;24.714;2023-05-19T00:44:10;99722.63;;;14.31;100.00
23170;BME280;11753;43.144;24.714;2023-05-19T00:45:11;99724.66;;;14.29;100.00
23170;BME280;11753;43.144;24.714;2023-05-19T00:46:12;99722.56;;;14.16;100.00
23170;BME280;11753;43.144;24.714;2023-05-19T00:47:13;99721.56;;;14.17;100.00
23170;BME280;11753;43.144;24.714;2023-05-19T00:48:14;99720.38;;;14.20;100.00
23170;BME280;11753;43.144;24.714;2023-05-19T00:49:15;99720.19;;;14.21;100.00
23170;BME280;11753;43.144;24.714;2023-05-19T00:50:16;99721.06;;;14.14;100.00
23170;BME280;11753;43.144;24.714;2023-05-19T00:51:17;99712.97;;;14.15;100.00
23170;BME280;11753;43.144;24.714;2023-05-19T00:52:18;99716.94;;;14.11;100.00
23170;BME280;11753;43.144;24.714;2023-05-19T00:53:19;99710.00;;;14.10;100.00
23170;BME280;11753;43.144;24.714;2023-05-19T00:54:20;99717.31;;;14.08;100.00
23170;BME280;11753;43.144;24.714;2023-05-19T00:55:26;99710.34;;;14.07;100.00
23170;BME280;11753;43.144;24.714;2023-05-19T00:56:28;99714.00;;;14.06;100.00
23170;BME280;11753;43.144;24.714;2023-05-19T00:57:29;99697.66;;;14.02;100.00
23170;BME280;11753;43.144;24.714;2023-05-19T00:58:30;99702.44;;;13.99;100.00
23170;BME280;11753;43.144;24.714;2023-05-19T00:59:32;99706.78;;;13.92;100.00
23170;BME280;11753;43.144;24.714;2023-05-19T01:00:32;99704.44;;;13.97;100.00
23170;BME280;11753;43.144;24.714;2023-05-19T01:01:34;99702.13;;;14.02;100.00
23170;BME280;11753;43.144;24.714;2023-05-19T01:02:36;99710.00;;;14.10;100.00
23170;BME280;11753;43.144;24.714;2023-05-19T01:03:39;99703.13;;;13.93;100.00
23170;BME280;11753;43.144;24.714;2023-05-19T01:04:43;99721.69;;;13.85;100.00
23170;BME280;11753;43.144;24.714;2023-05-19T01:05:44;99709.78;;;13.89;100.00
23170;BME280;11753;43.144;24.714;2023-05-19T01:06:48;99717.22;;;13.85;100.00
23170;BME280;11753;43.144;24.714;2023-05-19T01:07:55;99721.88;;;13.83;100.00
23170;BME280;11753;43.144;24.714;2023-05-19T01:08:56;99720.56;;;13.87;100.00
23170;BME280;11753;43.144;24.714;2023-05-19T01:09:57;99707.81;;;13.83;100.00
23170;BME280;11753;43.144;24.714;2023-05-19T01:10:59;99712.16;;;13.75;100.00
23170;BME280;11753;43.144;24.714;2023-05-19T01:12:00;99716.94;;;13.80;100.00
23170;BME280;11753;43.144;24.714;2023-05-19T01:13:02;99721.38;;;13.88;100.00
23170;BME280;11753;43.144;24.714;2023-05-19T01:14:04;99721.00;;;13.91;100.00
23170;BME280;11753;43.144;24.714;2023-05-19T01:15:06;99724.66;;;13.90;100.00
23170;BME280;11753;43.144;24.714;2023-05-19T01:16:23;99721.00;;;13.91;100.00
23170;BME280;11753;43.144;24.714;2023-05-19T01:17:31;99714.75;;;13.84;100.00
23170;BME280;11753;43.144;24.714;2023-05-19T01:19:51;99722.97;;;13.97;100.00
23170;BME280;11753;43.144;24.714;2023-05-19T01:22:00;99722.34;;;13.95;100.00
23170;BME280;11753;43.144;24.714;2023-05-19T01:23:11;99721.91;;;13.75;100.00
23170;BME280;11753;43.144;24.714;2023-05-19T01:26:15;99726.38;;;13.74;100.00
23170;BME280;11753;43.144;24.714;2023-05-19T01:29:02;99723.06;;;13.81;100.00
23170;BME280;11753;43.144;24.714;2023-05-19T01:31:24;99718.06;;;13.86;100.00
23170;BME280;11753;43.144;24.714;2023-05-19T01:32:25;99723.34;;;13.86;100.00
23170;BME280;11753;43.144;24.714;2023-05-19T01:33:29;99715.72;;;13.91;100.00
23170;BME280;11753;43.144;24.714;2023-05-19T01:34:33;99719.72;;;13.87;100.00
23170;BME280;11753;43.144;24.714;2023-05-19T01:35:38;99727.81;;;13.85;100.00
23170;BME280;11753;43.144;24.714;2023-05-19T01:36:41;99729.94;;;13.90;100.00
23170;BME280;11753;43.144;24.714;2023-05-19T01:37:44;99723.66;;;13.91;100.00
23170;BME280;11753;43.144;24.714;2023-05-19T01:38:50;99730.44;;;13.93;100.00
23170;BME280;11753;43.144;24.714;2023-05-19T01:39:51;99729.94;;;13.90;100.00
23170;BME280;11753;43.144;24.714;2023-05-19T01:40:56;99728.94;;;13.91;100.00
23170;BME280;11753;43.144;24.714;2023-05-19T01:41:57;99735.38;;;13.96;100.00
23170;BME280;11753;43.144;24.714;2023-05-19T01:42:59;99735.56;;;13.95;100.00
23170;BME280;11753;43.144;24.714;2023-05-19T01:44:00;99733.59;;;13.89;100.00
23170;BME280;11753;43.144;24.714;2023-05-19T01:45:02;99734.88;;;13.93;100.00
23170;BME280;11753;43.144;24.714;2023-05-19T01:46:07;99729.59;;;14.01;100.00
23170;BME280;11753;43.144;24.714;2023-05-19T01:47:08;99734.34;;;14.05;100.00
23170;BME280;11753;43.144;24.714;2023-05-19T01:48:10;99737.66;;;14.08;100.00
23170;BME280;11753;43.144;24.714;2023-05-19T01:49:13;99734.22;;;13.99;100.00
23170;BME280;11753;43.144;24.714;2023-05-19T01:50:14;99740.81;;;14.03;100.00
23170;BME280;11753;43.144;24.714;2023-05-19T01:51:15;99742.16;;;13.99;100.00
23170;BME280;11753;43.144;24.714;2023-05-19T01:52:16;99738.69;;;13.98;100.00
23170;BME280;11753;43.144;24.714;2023-05-19T01:53:17;99742.53;;;13.88;100.00
23170;BME280;11753;43.144;24.714;2023-05-19T01:54:18;99746.84;;;13.89;100.00
23170;BME280;11753;43.144;24.714;2023-05-19T01:55:19;99738.53;;;13.92;100.00
23170;BME280;11753;43.144;24.714;2023-05-19T01:59:41;99750.78;;;13.93;100.00
23170;BME280;11753;43.144;24.714;2023-05-19T02:00:50;99747.16;;;13.94;100.00
23170;BME280;11753;43.144;24.714;2023-05-19T02:01:56;99748.31;;;13.91;100.00
23170;BME280;11753;43.144;24.714;2023-05-19T02:04:26;99750.81;;;13.85;100.00
23170;BME280;11753;43.144;24.714;2023-05-19T02:05:43;99748.97;;;13.85;100.00
23170;BME280;11753;43.144;24.714;2023-05-19T02:06:59;99748.31;;;13.91;100.00
23170;BME280;11753;43.144;24.714;2023-05-19T02:08:21;99748.78;;;13.95;100.00
23170;BME280;11753;43.144;24.714;2023-05-19T02:10:35;99752.78;;;13.91;100.00
23170;BME280;11753;43.144;24.714;2023-05-19T02:11:40;99752.78;;;13.91;100.00
23170;BME280;11753;43.144;24.714;2023-05-19T02:12:43;99754.91;;;13.95;100.00
23170;BME280;11753;43.144;24.714;2023-05-19T02:13:48;99753.59;;;13.91;100.00
23170;BME280;11753;43.144;24.714;2023-05-19T02:15:01;99749.47;;;13.89;100.00
23170;BME280;11753;43.144;24.714;2023-05-19T02:16:04;99760.75;;;13.83;100.00
23170;BME280;11753;43.144;24.714;2023-05-19T02:17:05;99757.09;;;13.84;100.00
23170;BME280;11753;43.144;24.714;2023-05-19T02:18:10;99748.16;;;13.85;100.00
23170;BME280;11753;43.144;24.714;2023-05-19T02:19:25;99754.44;;;13.84;100.00
23170;BME280;11753;43.144;24.714;2023-05-19T02:20:26;99754.63;;;13.82;100.00
23170;BME280;11753;43.144;24.714;2023-05-19T02:21:26;99751.47;;;13.87;100.00
23170;BME280;11753;43.144;24.714;2023-05-19T02:22:27;99758.06;;;13.91;100.00
23170;BME280;11753;43.144;24.714;2023-05-19T02:23:28;99760.28;;;13.79;100.00
23170;BME280;11753;43.144;24.714;2023-05-19T02:24:28;99758.28;;;13.81;100.00
23170;BME280;11753;43.144;24.714;2023-05-19T02:25:29;99765.84;;;13.84;100.00
23170;BME280;11753;43.144;24.714;2023-05-19T02:26:30;99762.38;;;13.84;100.00
23170;BME280;11753;43.144;24.714;2023-05-19T02:27:31;99762.75;;;13.81;100.00
23170;BME280;11753;43.144;24.714;2023-05-19T02:28:31;99765.34;;;13.89;100.00
23170;BME280;11753;43.144;24.714;2023-05-19T02:29:32;99762.38;;;13.84;100.00
23170;BME280;11753;43.144;24.714;2023-05-19T02:30:32;99761.78;;;13.73;100.00
23170;BME280;11753;43.144;24.714;2023-05-19T02:31:33;99774.00;;;13.74;100.00
23170;BME280;11753;43.144;24.714;2023-05-19T02:32:34;99760.44;;;13.69;100.00
23170;BME280;11753;43.144;24.714;2023-05-19T02:33:35;99772.53;;;13.64;100.00
23170;BME280;11753;43.144;24.714;2023-05-19T02:34:37;99778.66;;;13.72;100.00
23170;BME280;11753;43.144;24.714;2023-05-19T02:35:38;99775.50;;;13.69;100.00
23170;BME280;11753;43.144;24.714;2023-05-19T02:36:40;99780.47;;;13.72;100.00
23170;BME280;11753;43.144;24.714;2023-05-19T02:37:42;99772.03;;;13.68;100.00
23170;BME280;11753;43.144;24.714;2023-05-19T02:38:42;99787.22;;;13.74;100.00
23170;BME280;11753;43.144;24.714;2023-05-19T02:39:43;99777.13;;;13.78;100.00
23170;BME280;11753;43.144;24.714;2023-05-19T02:40:44;99782.25;;;13.80;100.00
23170;BME280;11753;43.144;24.714;2023-05-19T02:41:45;99792.84;;;13.80;100.00
23170;BME280;11753;43.144;24.714;2023-05-19T02:42:46;99778.25;;;13.84;100.00
23170;BME280;11753;43.144;24.714;2023-05-19T02:43:47;99788.69;;;13.77;100.00
23170;BME280;11753;43.144;24.714;2023-05-19T02:44:48;99781.28;;;13.72;100.00
23170;BME280;11753;43.144;24.714;2023-05-19T02:45:49;99780.25;;;13.82;100.00
23170;BME280;11753;43.144;24.714;2023-05-19T02:46:50;99786.19;;;13.84;100.00
23170;BME280;11753;43.144;24.714;2023-05-19T02:47:51;99785.22;;;13.76;100.00
23170;BME280;11753;43.144;24.714;2023-05-19T02:48:51;99782.25;;;13.80;100.00
23170;BME280;11753;43.144;24.714;2023-05-19T02:49:53;99778.63;;;13.81;100.00
23170;BME280;11753;43.144;24.714;2023-05-19T02:50:53;99792.50;;;13.83;100.00
23170;BME280;11753;43.144;24.714;2023-05-19T02:51:54;99793.53;;;13.73;100.00
23170;BME280;11753;43.144;24.714;2023-05-19T02:52:55;99791.16;;;13.78;100.00
23170;BME280;11753;43.144;24.714;2023-05-19T02:53:56;99801.28;;;13.75;100.00
23170;BME280;11753;43.144;24.714;2023-05-19T02:54:57;99800.66;;;13.65;100.00
23170;BME280;11753;43.144;24.714;2023-05-19T02:55:58;99799.81;;;13.64;100.00
23170;BME280;11753;43.144;24.714;2023-05-19T02:56:59;99803.44;;;13.63;100.00
23170;BME280;11753;43.144;24.714;2023-05-19T02:58:01;99800.66;;;13.65;100.00
23170;BME280;11753;43.144;24.714;2023-05-19T02:59:01;99805.09;;;13.64;100.00
23170;BME280;11753;43.144;24.714;2023-05-19T03:00:03;99798.50;;;13.60;100.00
23170;BME280;11753;43.144;24.714;2023-05-19T03:01:05;99802.63;;;13.55;100.00
23170;BME280;11753;43.144;24.714;2023-05-19T03:02:06;99801.47;;;13.57;100.00
23170;BME280;11753;43.144;24.714;2023-05-19T03:03:07;99809.56;;;13.64;100.00
23170;BME280;11753;43.144;24.714;2023-05-19T03:04:09;99810.38;;;13.64;100.00
23170;BME280;11753;43.144;24.714;2023-05-19T03:05:10;99801.47;;;13.65;100.00
23170;BME280;11753;43.144;24.714;2023-05-19T03:06:12;99808.88;;;13.70;100.00
23170;BME280;11753;43.144;24.714;2023-05-19T03:07:13;99804.78;;;13.67;100.00
23170;BME280;11753;43.144;24.714;2023-05-19T03:08:15;99808.09;;;13.61;100.00
23170;BME280;11753;43.144;24.714;2023-05-19T03:09:16;99806.47;;;13.52;100.00
23170;BME280;11753;43.144;24.714;2023-05-19T03:10:17;99802.16;;;13.59;100.00
23170;BME280;11753;43.144;24.714;2023-05-19T03:11:18;99813.03;;;13.72;100.00
23170;BME280;11753;43.144;24.714;2023-05-19T03:12:19;99818.00;;;13.67;100.00
23170;BME280;11753;43.144;24.714;2023-05-19T03:13:20;99817.03;;;13.52;100.00
23170;BME280;11753;43.144;24.714;2023-05-19T03:14:21;99808.41;;;13.50;100.00
23170;BME280;11753;43.144;24.714;2023-05-19T03:15:24;99814.69;;;13.57;100.00
23170;BME280;11753;43.144;24.714;2023-05-19T03:16:25;99795.22;;;13.58;100.00
23170;BME280;11753;43.144;24.714;2023-05-19T03:17:27;99804.97;;;13.58;100.00
23170;BME280;11753;43.144;24.714;2023-05-19T03:18:33;99805.78;;;13.58;100.00
23170;BME280;11753;43.144;24.714;2023-05-19T03:19:34;99809.41;;;13.57;100.00
23170;BME280;11753;43.144;24.714;2023-05-19T03:20:35;99819.97;;;13.57;100.00
23170;BME280;11753;43.144;24.714;2023-05-19T03:21:39;99802.31;;;13.49;100.00
23170;BME280;11753;43.144;24.714;2023-05-19T03:22:40;99807.09;;;13.54;100.00
23170;BME280;11753;43.144;24.714;2023-05-19T03:23:41;99809.41;;;13.57;100.00
23170;BME280;11753;43.144;24.714;2023-05-19T03:24:42;99805.78;;;13.58;100.00
23170;BME280;11753;43.144;24.714;2023-05-19T03:25:43;99803.44;;;13.63;100.00
23170;BME280;11753;43.144;24.714;2023-05-19T03:26:44;99798.81;;;13.73;100.00
23170;BME280;11753;43.144;24.714;2023-05-19T03:27:45;99812.50;;;13.77;100.00
23170;BME280;11753;43.144;24.714;2023-05-19T03:28:46;99806.41;;;13.68;100.00
23170;BME280;11753;43.144;24.714;2023-05-19T03:29:49;99806.25;;;13.70;100.00
23170;BME280;11753;43.144;24.714;2023-05-19T03:30:52;99801.47;;;13.65;100.00
23170;BME280;11753;43.144;24.714;2023-05-19T03:31:53;99810.53;;;13.71;100.00
23170;BME280;11753;43.144;24.714;2023-05-19T03:32:54;99813.03;;;13.72;100.00
23170;BME280;11753;43.144;24.714;2023-05-19T03:33:55;99815.34;;;13.75;100.00
23170;BME280;11753;43.144;24.714;2023-05-19T03:34:57;99817.31;;;13.82;100.00
23170;BME280;11753;43.144;24.714;2023-05-19T03:35:58;99824.09;;;13.76;100.00
23170;BME280;11753;43.144;24.714;2023-05-19T03:36:59;99816.97;;;13.76;100.00
23170;BME280;11753;43.144;24.714;2023-05-19T03:38:00;99807.41;;;13.75;100.00
23170;BME280;11753;43.144;24.714;2023-05-19T03:39:01;99816.94;;;13.85;100.00
23170;BME280;11753;43.144;24.714;2023-05-19T03:40:03;99815.81;;;13.87;100.00
23170;BME280;11753;43.144;24.714;2023-05-19T03:41:05;99820.25;;;13.95;100.00
23170;BME280;11753;43.144;24.714;2023-05-19T03:42:06;99820.91;;;13.97;100.00
23170;BME280;11753;43.144;24.714;2023-05-19T03:43:07;99822.38;;;13.99;100.00
23170;BME280;11753;43.144;24.714;2023-05-19T03:44:11;99816.94;;;14.01;100.00
23170;BME280;11753;43.144;24.714;2023-05-19T03:45:12;99818.56;;;14.02;100.00
23170;BME280;11753;43.144;24.714;2023-05-19T03:46:13;99829.63;;;14.05;100.00
23170;BME280;11753;43.144;24.714;2023-05-19T03:47:14;99822.84;;;14.11;100.00
23170;BME280;11753;43.144;24.714;2023-05-19T03:48:14;99819.03;;;14.05;100.00
23170;BME280;11753;43.144;24.714;2023-05-19T03:49:15;99829.78;;;14.12;100.00
23170;BME280;11753;43.144;24.714;2023-05-19T03:50:16;99824.97;;;14.16;100.00
23170;BME280;11753;43.144;24.714;2023-05-19T03:51:17;99835.41;;;14.17;100.00
23170;BME280;11753;43.144;24.714;2023-05-19T03:52:18;99831.91;;;14.17;100.00
23170;BME280;11753;43.144;24.714;2023-05-19T03:53:19;99832.75;;;14.17;100.00
23170;BME280;11753;43.144;24.714;2023-05-19T03:54:20;99837.91;;;14.11;100.00
23170;BME280;11753;43.144;24.714;2023-05-19T03:55:22;99837.41;;;14.15;100.00
23170;BME280;11753;43.144;24.714;2023-05-19T03:56:23;99832.06;;;14.23;100.00
23170;BME280;11753;43.144;24.714;2023-05-19T03:57:27;99836.47;;;14.39;100.00
23170;BME280;11753;43.144;24.714;2023-05-19T03:58:29;99828.69;;;14.38;100.00
23170;BME280;11753;43.144;24.714;2023-05-19T03:59:30;99826.84;;;14.46;100.00
23170;BME280;11753;43.144;24.714;2023-05-19T04:00:31;99830.97;;;14.49;100.00
23170;BME280;11753;43.144;24.714;2023-05-19T04:01:33;99829.63;;;14.53;100.00
23170;BME280;11753;43.144;24.714;2023-05-19T04:02:34;99819.34;;;14.58;100.00
23170;BME280;11753;43.144;24.714;2023-05-19T04:03:35;99829.63;;;14.53;100.00
23170;BME280;11753;43.144;24.714;2023-05-19T04:04:35;99826.69;;;14.40;100.00
23170;BME280;11753;43.144;24.714;2023-05-19T04:05:39;99827.69;;;14.47;100.00
23170;BME280;11753;43.144;24.714;2023-05-19T04:06:40;99826.16;;;14.52;100.00
23170;BME280;11753;43.144;24.714;2023-05-19T04:07:41;99828.59;;;14.62;100.00
23170;BME280;11753;43.144;24.714;2023-05-19T04:08:42;99826.94;;;14.61;100.00
23170;BME280;11753;43.144;24.714;2023-05-19T04:09:44;99836.75;;;14.52;100.00
23170;BME280;11753;43.144;24.714;2023-05-19T04:10:45;99833.31;;;14.44;100.00
23170;BME280;11753;43.144;24.714;2023-05-19T04:11:46;99839.22;;;14.54;100.00
23170;BME280;11753;43.144;24.714;2023-05-19T04:12:47;99846.81;;;14.65;100.00
23170;BME280;11753;43.144;24.714;2023-05-19T04:13:48;99825.75;;;14.72;100.00
23170;BME280;11753;43.144;24.714;2023-05-19T04:14:49;99837.59;;;14.53;100.00
23170;BME280;11753;43.144;24.714;2023-05-19T04:15:50;99838.84;;;14.65;100.00
23170;BME280;11753;43.144;24.714;2023-05-19T04:16:51;99842.84;;;14.61;100.00
23170;BME280;11753;43.144;24.714;2023-05-19T04:17:53;99837.84;;;14.66;100.00
23170;BME280;11753;43.144;24.714;2023-05-19T04:18:54;99836.59;;;14.54;100.00
23170;BME280;11753;43.144;24.714;2023-05-19T04:19:55;99844.88;;;14.51;100.00
23170;BME280;11753;43.144;24.714;2023-05-19T04:20:56;99840.41;;;14.51;100.00
23170;BME280;11753;43.144;24.714;2023-05-19T04:21:57;99843.56;;;14.47;100.00
23170;BME280;11753;43.144;24.714;2023-05-19T04:22:58;99839.22;;;14.54;100.00
23170;BME280;11753;43.144;24.714;2023-05-19T04:23:58;99839.06;;;14.55;100.00
23170;BME280;11753;43.144;24.714;2023-05-19T04:24:59;99833.56;;;14.57;100.00
23170;BME280;11753;43.144;24.714;2023-05-19T04:26:01;99842.78;;;14.69;100.00
23170;BME280;11753;43.144;24.714;2023-05-19T04:27:03;99840.56;;;14.58;100.00
23170;BME280;11753;43.144;24.714;2023-05-19T04:28:04;99851.94;;;14.67;100.00
23170;BME280;11753;43.144;24.714;2023-05-19T04:29:04;99843.41;;;14.79;100.00
23170;BME280;11753;43.144;24.714;2023-05-19T04:30:05;99845.19;;;14.87;100.00
23170;BME280;11753;43.144;24.714;2023-05-19T04:31:07;99833.44;;;14.81;100.00
23170;BME280;11753;43.144;24.714;2023-05-19T04:32:11;99838.69;;;14.90;100.00
23170;BME280;11753;43.144;24.714;2023-05-19T04:33:16;99856.97;;;15.07;100.00
23170;BME280;11753;43.144;24.714;2023-05-19T04:34:19;99849.78;;;15.16;100.00
23170;BME280;11753;43.144;24.714;2023-05-19T04:35:19;99848.72;;;15.25;100.00
23170;BME280;11753;43.144;24.714;2023-05-19T04:36:20;99842.97;;;15.22;100.00
23170;BME280;11753;43.144;24.714;2023-05-19T04:37:27;99852.38;;;15.24;100.00
23170;BME280;11753;43.144;24.714;2023-05-19T04:38:29;99850.66;;;15.31;100.00
23170;BME280;11753;43.144;24.714;2023-05-19T04:39:29;99854.47;;;15.06;100.00
23170;BME280;11753;43.144;24.714;2023-05-19T04:40:30;99855.72;;;15.18;100.00
23170;BME280;11753;43.144;24.714;2023-05-19T04:41:31;99857.31;;;15.27;100.00
23170;BME280;11753;43.144;24.714;2023-05-19T04:42:33;99850.03;;;15.29;100.00
23170;BME280;11753;43.144;24.714;2023-05-19T04:43:33;99852.13;;;15.34;100.00
23170;BME280;11753;43.144;24.714;2023-05-19T04:44:35;99854.50;;;15.29;100.00
23170;BME280;11753;43.144;24.714;2023-05-19T04:45:39;99858.97;;;15.28;100.00
23170;BME280;11753;43.144;24.714;2023-05-19T04:46:42;99850.97;;;15.36;100.00
23170;BME280;11753;43.144;24.714;2023-05-19T04:47:44;99852.63;;;15.14;100.00
23170;BME280;11753;43.144;24.714;2023-05-19T04:48:47;99860.44;;;15.31;100.00
23170;BME280;11753;43.144;24.714;2023-05-19T04:49:47;99847.31;;;15.37;100.00
23170;BME280;11753;43.144;24.714;2023-05-19T04:50:49;99846.47;;;15.37;100.00
23170;BME280;11753;43.144;24.714;2023-05-19T04:51:51;99863.28;;;15.29;100.00
23170;BME280;11753;43.144;24.714;2023-05-19T04:52:52;99860.16;;;15.26;100.00
23170;BME280;11753;43.144;24.714;2023-05-19T04:53:59;99852.13;;;15.34;100.00
23170;BME280;11753;43.144;24.714;2023-05-19T04:55:01;99853.84;;;15.27;100.00
23170;BME280;11753;43.144;24.714;2023-05-19T04:56:02;99854.13;;;15.32;100.00
23170;BME280;11753;43.144;24.714;2023-05-19T04:57:03;99863.03;;;15.39;100.00
23170;BME280;11753;43.144;24.714;2023-05-19T04:58:05;99861.13;;;15.48;100.00
23170;BME280;11753;43.144;24.714;2023-05-19T04:59:06;99869.69;;;15.35;100.00
23170;BME280;11753;43.144;24.714;2023-05-19T05:00:09;99868.44;;;15.46;100.00
23170;BME280;11753;43.144;24.714;2023-05-19T05:01:14;99866.50;;;15.39;100.00
23170;BME280;11753;43.144;24.714;2023-05-19T05:02:15;99867.50;;;15.38;100.00
23170;BME280;11753;43.144;24.714;2023-05-19T05:03:16;99869.56;;;15.28;100.00
23170;BME280;11753;43.144;24.714;2023-05-19T05:04:18;99881.47;;;15.32;100.00
23170;BME280;11753;43.144;24.714;2023-05-19T05:05:19;99882.31;;;15.33;100.00
23170;BME280;11753;43.144;24.714;2023-05-19T05:06:20;99883.94;;;15.34;100.00
23170;BME280;11753;43.144;24.714;2023-05-19T05:07:22;99871.44;;;15.42;100.00
23170;BME280;11753;43.144;24.714;2023-05-19T05:08:24;99876.75;;;15.42;100.00
23170;BME280;11753;43.144;24.714;2023-05-19T05:09:25;99877.03;;;15.48;100.00
23170;BME280;11753;43.144;24.714;2023-05-19T05:10:26;99873.13;;;15.44;100.00
23170;BME280;11753;43.144;24.714;2023-05-19T05:11:27;99875.28;;;15.40;100.00
23170;BME280;11753;43.144;24.714;2023-05-19T05:12:28;99875.09;;;15.41;100.00
23170;BME280;11753;43.144;24.714;2023-05-19T05:13:29;99872.38;;;15.50;100.00
23170;BME280;11753;43.144;24.714;2023-05-19T05:14:30;99870.50;;;15.35;100.00
23170;BME280;11753;43.144;24.714;2023-05-19T05:15:32;99872.81;;;15.38;100.00
23170;BME280;11753;43.144;24.714;2023-05-19T05:16:33;99881.34;;;15.49;100.00
23170;BME280;11753;43.144;24.714;2023-05-19T05:17:34;99884.66;;;15.51;100.00
23170;BME280;11753;43.144;24.714;2023-05-19T05:18:35;99886.66;;;15.49;100.00
23170;BME280;11753;43.144;24.714;2023-05-19T05:19:38;99882.41;;;15.39;100.00
23170;BME280;11753;43.144;24.714;2023-05-19T05:20:42;99883.00;;;15.50;100.00
23170;BME280;11753;43.144;24.714;2023-05-19T05:21:43;99883.91;;;15.65;100.00
23170;BME280;11753;43.144;24.714;2023-05-19T05:22:44;99886.38;;;15.66;100.00
23170;BME280;11753;43.144;24.714;2023-05-19T05:23:51;99880.78;;;15.61;100.00
23170;BME280;11753;43.144;24.714;2023-05-19T05:24:52;99880.50;;;15.71;100.00
23170;BME280;11753;43.144;24.714;2023-05-19T05:25:53;99884.56;;;15.44;100.00
23170;BME280;11753;43.144;24.714;2023-05-19T05:26:54;99865.34;;;15.19;100.00
23170;BME280;11753;43.144;24.714;2023-05-19T05:27:55;99874.88;;;15.28;100.00
23170;BME280;11753;43.144;24.714;2023-05-19T05:28:58;99877.47;;;15.36;100.00
23170;BME280;11753;43.144;24.714;2023-05-19T05:29:59;99876.28;;;15.39;100.00
23170;BME280;11753;43.144;24.714;2023-05-19T05:31:00;99871.09;;;15.46;100.00
23170;BME280;11753;43.144;24.714;2023-05-19T05:32:01;99878.41;;;15.66;100.00
23170;BME280;11753;43.144;24.714;2023-05-19T05:33:02;99880.88;;;15.68;100.00